Time;durP1;ratioP1;P1;durP2;ratioP2;P2;SDS_P1;SDS_P2;PMS_P1;PMS_P2;Temp;Humidity;BMP_temperature;BMP_pressure;BME280_temperature;BME280_humidity;BME280_pressure;Samples;Min_cycle;Max_cycle;Signal;HPM_P1;HPM_P2
2023/04/28 00:00:29;;;;;;;1.87;1.77;;;;;;;;;;5011164;28;20227;-96
2023/04/28 00:02:57;;;;;;;2.13;1.73;;;;;;;;;;5015633;28;20273;-95
2023/04/28 00:05:24;;;;;;;3.37;2.47;;;;;;;;;;5013002;28;20206;-96
2023/04/28 00:07:52;;;;;;;2.03;1.83;;;;;;;;;;5021718;28;20216;-94
2023/04/28 00:10:22;;;;;;;2.20;2.00;;;;;;;;;;5024663;28;20229;-94
2023/04/28 00:12:49;;;;;;;2.27;1.77;;;;;;;;;;5021296;28;20237;-95
2023/04/28 00:15:16;;;;;;;6.33;2.87;;;;;;;;;;5026426;28;20314;-96
2023/04/28 00:17:43;;;;;;;2.77;2.10;;;;;;;;;;5030297;28;20238;-94
2023/04/28 00:20:12;;;;;;;6.37;2.03;;;;;;;;;;5029626;28;20207;-96
2023/04/28 00:22:40;;;;;;;8.27;3.20;;;;;;;;;;5030942;28;20660;-94
2023/04/28 00:25:09;;;;;;;2.60;2.40;;;;;;;;;;5013021;28;20230;-95
2023/04/28 00:27:36;;;;;;;7.03;4.53;;;;;;;;;;5035162;28;20202;-95
2023/04/28 00:30:03;;;;;;;4.03;3.30;;;;;;;;;;5033393;28;20284;-95
2023/04/28 00:32:30;;;;;;;2.27;2.07;;;;;;;;;;5033376;28;20238;-95
2023/04/28 00:34:57;;;;;;;1.80;1.70;;;;;;;;;;5033533;28;20222;-95
2023/04/28 00:37:24;;;;;;;1.90;1.80;;;;;;;;;;5021844;28;20215;-95
2023/04/28 00:39:55;;;;;;;2.43;2.23;;;;;;;;;;5013698;28;20633;-95
2023/04/28 00:42:23;;;;;;;2.20;2.00;;;;;;;;;;5013416;28;20211;-95
2023/04/28 00:44:50;;;;;;;2.13;2.00;;;;;;;;;;5013573;28;20207;-94
2023/04/28 00:47:17;;;;;;;2.23;2.00;;;;;;;;;;5014691;28;20208;-94
2023/04/28 01:03:18;;;;;;;2.73;2.13;;;;;;;;;;4945737;28;20222;-94
2023/04/28 01:05:45;;;;;;;2.27;1.90;;;;;;;;;;4995698;28;20266;-95
2023/04/28 01:08:12;;;;;;;2.20;1.50;;;;;;;;;;4995678;28;20204;-96
2023/04/28 01:10:43;;;;;;;5.10;2.23;;;;;;;;;;5001151;28;20233;-95
2023/04/28 01:16:45;;;;;;;2.50;2.30;;;;;;;;;;5039826;28;20661;-93
2023/04/28 01:19:18;;;;;;;5.17;2.10;;;;;;;;;;5038695;28;20198;-93
2023/04/28 01:21:45;;;;;;;2.83;2.00;;;;;;;;;;5034189;28;20198;-94
2023/04/28 01:24:22;;;;;;;1.83;1.63;;;;;;;;;;5039516;28;20230;-95
2023/04/28 01:26:49;;;;;;;2.77;2.00;;;;;;;;;;5019138;28;20269;-94
2023/04/28 01:29:16;;;;;;;2.87;2.30;;;;;;;;;;5016328;28;20222;-95
2023/04/28 01:31:43;;;;;;;6.50;4.40;;;;;;;;;;5014370;28;20289;-95
2023/04/28 01:34:10;;;;;;;3.50;2.83;;;;;;;;;;5016535;28;20227;-95
2023/04/28 01:36:37;;;;;;;11.00;6.60;;;;;;;;;;5023979;28;20230;-95
2023/04/28 01:39:04;;;;;;;4.90;2.97;;;;;;;;;;5017842;28;20208;-94
2023/04/28 01:41:34;;;;;;;4.63;3.17;;;;;;;;;;5011090;28;20257;-95
2023/04/28 01:44:00;;;;;;;2.33;1.97;;;;;;;;;;5011946;28;20235;-95
2023/04/28 01:46:27;;;;;;;3.00;2.13;;;;;;;;;;5033231;28;20265;-95
2023/04/28 01:48:54;;;;;;;3.27;2.43;;;;;;;;;;5036609;28;20219;-94
2023/04/28 01:51:33;;;;;;;3.13;1.90;;;;;;;;;;5039913;28;20206;-95
2023/04/28 01:54:00;;;;;;;4.27;2.07;;;;;;;;;;5019094;28;20238;-93
2023/04/28 01:56:38;;;;;;;9.53;2.37;;;;;;;;;;5017478;28;20223;-95
2023/04/28 01:59:06;;;;;;;4.77;2.33;;;;;;;;;;5002999;28;20184;-95
2023/04/28 02:01:34;;;;;;;2.73;1.93;;;;;;;;;;5039804;28;20243;-94
2023/04/28 02:04:06;;;;;;;3.87;2.20;;;;;;;;;;5198523;23;20545;-94
2023/04/28 02:06:33;;;;;;;2.23;2.03;;;;;;;;;;5023239;28;20214;-94
2023/04/28 02:09:01;;;;;;;3.10;2.00;;;;;;;;;;5021701;28;20231;-94
2023/04/28 02:11:30;;;;;;;1.90;1.80;;;;;;;;;;5022998;28;20275;-93
2023/04/28 02:14:20;;;;;;;2.70;2.10;;;;;;;;;;5365883;23;20221;-93
2023/04/28 02:19:28;;;;;;;1.87;1.57;;;;;;;;;;5183553;23;20292;-93
2023/04/28 02:24:50;;;;;;;3.80;2.30;;;;;;;;;;5055762;23;20296;-94
2023/04/28 02:27:39;;;;;;;2.27;2.07;;;;;;;;;;5005253;28;20196;-94
2023/04/28 02:33:08;;;;;;;5.70;2.00;;;;;;;;;;5335593;23;20191;-93
2023/04/28 05:48:03;;;;;;;5.07;4.40;;;;;;;;;;4919772;28;20650;-95
2023/04/28 05:51:28;;;;;;;7.73;3.87;;;;;;;;;;5001336;28;20208;-94
2023/04/28 05:57:27;;;;;;;6.67;3.87;;;;;;;;;;4881570;29;20200;-94
2023/04/28 05:59:54;;;;;;;3.93;2.47;;;;;;;;;;4967651;28;20217;-95
2023/04/28 06:08:59;;;;;;;5.97;4.10;;;;;;;;;;5000612;28;20295;-94
2023/04/28 06:11:27;;;;;;;2.83;2.63;;;;;;;;;;5002870;28;20678;-94
2023/04/28 06:14:11;;;;;;;2.80;2.50;;;;;;;;;;5016007;28;20256;-95
2023/04/28 06:16:56;;;;;;;3.30;2.33;;;;;;;;;;5009509;28;20212;-94
2023/04/28 06:28:27;;;;;;;19.87;10.90;;;;;;;;;;5162787;23;20234;-95
2023/04/28 06:31:07;;;;;;;22.47;9.20;;;;;;;;;;5023288;28;20195;-94
2023/04/28 06:39:22;;;;;;;9.20;5.73;;;;;;;;;;5097047;23;20243;-94
2023/04/28 06:41:49;;;;;;;7.33;4.20;;;;;;;;;;5033975;28;20203;-93
2023/04/28 06:44:20;;;;;;;5.03;4.00;;;;;;;;;;5031246;28;20298;-96
2023/04/28 06:46:47;;;;;;;5.77;3.60;;;;;;;;;;5009495;28;20290;-95
2023/04/28 06:49:14;;;;;;;5.07;4.57;;;;;;;;;;5019336;28;20211;-95
2023/04/28 06:52:13;;;;;;;5.23;4.13;;;;;;;;;;5030736;28;20217;-95
2023/04/28 07:08:29;;;;;;;2.63;2.43;;;;;;;;;;5015440;28;20236;-95
2023/04/28 07:11:24;;;;;;;2.10;2.00;;;;;;;;;;5013288;28;20230;-95
2023/04/28 07:17:12;;;;;;;4.87;2.50;;;;;;;;;;4970281;28;20196;-94
2023/04/28 07:19:39;;;;;;;3.37;1.97;;;;;;;;;;5010230;28;20226;-95
2023/04/28 07:22:07;;;;;;;2.87;2.13;;;;;;;;;;5006680;28;20204;-95
2023/04/28 07:24:34;;;;;;;4.93;2.73;;;;;;;;;;4989782;28;20220;-95
2023/04/28 07:27:03;;;;;;;5.13;2.37;;;;;;;;;;5006265;28;20267;-93
2023/04/28 07:29:32;;;;;;;7.00;2.37;;;;;;;;;;5013239;28;20223;-95
2023/04/28 07:32:00;;;;;;;3.40;1.97;;;;;;;;;;5002949;28;20220;-94
2023/04/28 07:34:27;;;;;;;5.93;2.83;;;;;;;;;;4996087;28;20226;-95
2023/04/28 07:36:54;;;;;;;2.47;2.30;;;;;;;;;;4996010;28;20231;-94
2023/04/28 07:39:20;;;;;;;4.90;3.27;;;;;;;;;;4994615;28;20223;-94
2023/04/28 07:41:47;;;;;;;5.27;3.43;;;;;;;;;;4994606;28;20274;-94
2023/04/28 07:44:15;;;;;;;3.80;3.50;;;;;;;;;;4994794;28;20682;-94
2023/04/28 07:46:42;;;;;;;6.00;3.90;;;;;;;;;;4994878;28;21418;-95
2023/04/28 07:49:09;;;;;;;6.90;4.67;;;;;;;;;;4995824;28;20212;-95
2023/04/28 07:51:36;;;;;;;9.50;8.10;;;;;;;;;;4995075;28;20216;-93
2023/04/28 07:54:02;;;;;;;2.87;2.40;;;;;;;;;;4981494;28;20653;-94
2023/04/28 07:56:30;;;;;;;4.43;3.30;;;;;;;;;;4994295;28;20707;-93
2023/04/28 07:58:57;;;;;;;6.30;4.00;;;;;;;;;;4993857;28;20679;-94
2023/04/28 08:01:25;;;;;;;5.33;3.20;;;;;;;;;;4994508;28;20212;-94
2023/04/28 08:03:52;;;;;;;2.63;2.43;;;;;;;;;;4994164;28;20208;-94
2023/04/28 08:06:19;;;;;;;3.23;3.03;;;;;;;;;;4994229;28;20258;-95
2023/04/28 08:08:46;;;;;;;3.00;2.70;;;;;;;;;;4995416;28;20299;-94
2023/04/28 08:11:13;;;;;;;4.53;3.77;;;;;;;;;;4993842;28;20654;-92
2023/04/28 08:13:39;;;;;;;3.90;2.90;;;;;;;;;;4992374;28;20278;-93
2023/04/28 08:16:07;;;;;;;4.30;2.57;;;;;;;;;;4982615;28;20298;-96
2023/04/28 08:18:35;;;;;;;5.70;4.03;;;;;;;;;;4992592;28;20204;-95
2023/04/28 08:21:02;;;;;;;5.23;2.77;;;;;;;;;;4984479;28;20205;-96
2023/04/28 08:23:30;;;;;;;9.17;7.27;;;;;;;;;;4993679;28;20216;-95
2023/04/28 08:25:57;;;;;;;6.60;4.50;;;;;;;;;;4994152;28;20197;-94
2023/04/28 08:28:24;;;;;;;6.13;2.93;;;;;;;;;;4991131;28;20225;-95
2023/04/28 08:30:52;;;;;;;3.40;2.87;;;;;;;;;;4983702;28;20235;-93
2023/04/28 08:33:19;;;;;;;4.47;3.20;;;;;;;;;;4980862;28;20212;-93
2023/04/28 08:35:47;;;;;;;7.33;4.70;;;;;;;;;;4993872;28;20286;-94
2023/04/28 08:38:16;;;;;;;9.97;6.60;;;;;;;;;;4993416;28;20208;-93
2023/04/28 08:40:43;;;;;;;4.30;2.93;;;;;;;;;;4993347;28;20687;-92
2023/04/28 08:43:10;;;;;;;3.30;2.27;;;;;;;;;;4989460;28;20224;-95
2023/04/28 08:45:41;;;;;;;7.63;5.80;;;;;;;;;;4985004;28;20298;-92
2023/04/28 08:48:14;;;;;;;8.33;3.37;;;;;;;;;;4993341;28;20306;-93
2023/04/28 08:50:42;;;;;;;6.07;3.00;;;;;;;;;;4993418;28;20200;-92
2023/04/28 08:53:12;;;;;;;4.27;2.70;;;;;;;;;;4980478;28;20223;-93
2023/04/28 08:55:39;;;;;;;4.23;2.13;;;;;;;;;;4980267;28;20225;-92
2023/04/28 08:58:06;;;;;;;4.13;2.30;;;;;;;;;;4993170;28;20219;-92
2023/04/28 09:00:33;;;;;;;5.40;3.33;;;;;;;;;;4993252;28;20212;-92
2023/04/28 09:02:59;;;;;;;4.93;2.83;;;;;;;;;;4985938;28;20669;-92
2023/04/28 09:05:26;;;;;;;4.00;3.00;;;;;;;;;;4987925;28;20601;-93
2023/04/28 09:07:54;;;;;;;2.70;2.50;;;;;;;;;;4992781;28;20212;-92
2023/04/28 09:10:24;;;;;;;3.90;2.57;;;;;;;;;;4993023;28;20308;-91
2023/04/28 09:12:52;;;;;;;6.03;4.40;;;;;;;;;;4986029;28;20263;-94
2023/04/28 09:15:26;;;;;;;4.40;2.97;;;;;;;;;;4987411;28;20215;-95
2023/04/28 09:17:53;;;;;;;4.57;2.80;;;;;;;;;;4988151;28;20219;-94
2023/04/28 09:20:21;;;;;;;4.80;3.73;;;;;;;;;;4994550;28;20197;-92
2023/04/28 09:22:50;;;;;;;2.90;2.70;;;;;;;;;;4993087;28;20247;-95
2023/04/28 09:25:17;;;;;;;5.87;4.53;;;;;;;;;;4988883;28;20251;-92
2023/04/28 09:27:46;;;;;;;4.50;3.70;;;;;;;;;;4984810;28;20634;-93
2023/04/28 09:30:13;;;;;;;4.17;3.07;;;;;;;;;;4993377;28;20204;-93
2023/04/28 09:32:40;;;;;;;3.17;2.70;;;;;;;;;;4993158;28;20216;-93
2023/04/28 09:35:07;;;;;;;2.83;2.60;;;;;;;;;;4992713;28;20213;-93
2023/04/28 09:37:36;;;;;;;3.17;2.87;;;;;;;;;;4980826;28;20259;-92
2023/04/28 09:40:08;;;;;;;9.50;6.77;;;;;;;;;;4992857;28;20220;-94
2023/04/28 09:42:35;;;;;;;12.00;7.87;;;;;;;;;;4992817;28;20201;-93
2023/04/28 09:45:05;;;;;;;5.17;2.80;;;;;;;;;;4992640;28;20270;-93
2023/04/28 09:47:33;;;;;;;7.23;5.13;;;;;;;;;;4979650;28;20571;-94
2023/04/28 09:50:03;;;;;;;4.40;3.77;;;;;;;;;;4992482;28;20270;-95
2023/04/28 09:52:30;;;;;;;3.30;2.70;;;;;;;;;;4993191;28;20208;-94
2023/04/28 09:54:58;;;;;;;6.13;3.77;;;;;;;;;;4993153;28;20212;-94
2023/04/28 09:57:25;;;;;;;12.07;5.93;;;;;;;;;;4979602;28;20236;-95
2023/04/28 09:59:53;;;;;;;3.17;2.83;;;;;;;;;;4992618;28;20587;-94
2023/04/28 10:02:22;;;;;;;7.53;2.97;;;;;;;;;;4991203;28;20649;-93
2023/04/28 10:04:50;;;;;;;9.57;3.90;;;;;;;;;;4985621;28;20219;-94
2023/04/28 10:07:19;;;;;;;9.60;5.17;;;;;;;;;;4996339;28;20619;-95
2023/04/28 10:09:49;;;;;;;4.33;3.93;;;;;;;;;;4996843;28;20232;-93
2023/04/28 10:12:16;;;;;;;4.00;2.83;;;;;;;;;;4996443;28;20631;-93
2023/04/28 10:14:43;;;;;;;4.17;3.77;;;;;;;;;;4995872;28;20216;-96
2023/04/28 10:17:10;;;;;;;4.70;3.33;;;;;;;;;;4996272;28;20265;-95
2023/04/28 10:19:40;;;;;;;2.90;2.70;;;;;;;;;;4996099;28;20216;-93
2023/04/28 10:22:21;;;;;;;6.20;3.73;;;;;;;;;;4983528;28;20204;-94
2023/04/28 10:24:59;;;;;;;5.33;3.33;;;;;;;;;;4995400;28;20208;-95
2023/04/28 10:27:30;;;;;;;4.27;3.03;;;;;;;;;;4985328;28;20206;-93
2023/04/28 10:30:10;;;;;;;5.30;3.20;;;;;;;;;;4995722;28;20270;-93
2023/04/28 10:32:37;;;;;;;3.37;3.07;;;;;;;;;;4995315;28;20231;-93
2023/04/28 10:35:43;;;;;;;3.57;3.17;;;;;;;;;;4995566;28;20274;-94
2023/04/28 10:38:11;;;;;;;4.87;2.90;;;;;;;;;;4982602;28;20232;-94
2023/04/28 10:40:42;;;;;;;3.67;2.63;;;;;;;;;;4995644;28;20212;-92
2023/04/28 10:43:09;;;;;;;3.30;3.00;;;;;;;;;;4995531;28;20212;-93
2023/04/28 10:46:02;;;;;;;2.93;2.63;;;;;;;;;;4995593;28;20200;-94
2023/04/28 10:48:55;;;;;;;6.20;3.03;;;;;;;;;;4984732;28;20270;-93
2023/04/28 10:51:26;;;;;;;3.37;3.07;;;;;;;;;;4990683;28;20235;-94
2023/04/28 10:54:27;;;;;;;6.10;2.73;;;;;;;;;;4976798;28;20209;-94
2023/04/28 10:57:21;;;;;;;2.90;2.70;;;;;;;;;;4986238;28;20324;-94
2023/04/28 10:59:51;;;;;;;2.70;2.50;;;;;;;;;;4989306;28;20348;-94
2023/04/28 11:02:39;;;;;;;6.50;3.27;;;;;;;;;;4979014;28;20780;-95
2023/04/28 11:05:14;;;;;;;4.43;3.17;;;;;;;;;;4995389;28;20220;-94
2023/04/28 11:08:26;;;;;;;4.23;3.50;;;;;;;;;;4994946;28;20636;-91
2023/04/28 11:11:12;;;;;;;3.10;2.80;;;;;;;;;;4994746;28;20231;-91
2023/04/28 11:13:39;;;;;;;3.50;3.20;;;;;;;;;;4994417;28;20223;-91
2023/04/28 11:16:06;;;;;;;3.70;2.63;;;;;;;;;;4995058;28;20220;-94
2023/04/28 11:18:44;;;;;;;2.50;2.30;;;;;;;;;;4995527;28;20259;-95
2023/04/28 11:21:11;;;;;;;4.43;2.73;;;;;;;;;;4994959;28;20219;-93
2023/04/28 11:23:42;;;;;;;4.87;2.50;;;;;;;;;;4991088;28;20340;-92
2023/04/28 11:26:09;;;;;;;15.63;8.47;;;;;;;;;;4986406;28;20216;-91
2023/04/28 11:28:36;;;;;;;4.40;3.10;;;;;;;;;;4994720;28;20205;-93
2023/04/28 11:31:17;;;;;;;4.83;2.47;;;;;;;;;;4995015;28;20271;-94
2023/04/28 11:33:46;;;;;;;2.63;2.37;;;;;;;;;;4982015;28;20684;-92
2023/04/28 11:36:23;;;;;;;2.37;2.20;;;;;;;;;;4994992;28;20208;-93
2023/04/28 11:38:51;;;;;;;6.73;4.03;;;;;;;;;;4994734;28;20659;-94
2023/04/28 11:41:18;;;;;;;3.30;2.53;;;;;;;;;;4994645;28;20215;-93
2023/04/28 11:43:45;;;;;;;15.83;5.07;;;;;;;;;;4985454;28;20356;-92
2023/04/28 11:46:17;;;;;;;2.57;2.37;;;;;;;;;;4990778;28;20215;-92
2023/04/28 11:48:43;;;;;;;3.37;2.23;;;;;;;;;;4994506;28;20299;-93
2023/04/28 11:51:10;;;;;;;3.37;1.90;;;;;;;;;;4993942;28;20278;-94
2023/04/28 11:53:45;;;;;;;3.20;1.93;;;;;;;;;;4994718;28;20295;-95
2023/04/28 11:56:13;;;;;;;4.40;2.73;;;;;;;;;;4981223;28;20299;-94
2023/04/28 11:58:40;;;;;;;2.40;2.20;;;;;;;;;;4994558;28;20212;-91
2023/04/28 12:01:08;;;;;;;3.63;1.93;;;;;;;;;;4994354;28;20208;-94
2023/04/28 12:03:42;;;;;;;3.13;2.23;;;;;;;;;;4981674;28;20215;-94
2023/04/28 12:06:09;;;;;;;3.37;2.10;;;;;;;;;;4981875;28;20258;-94
2023/04/28 12:08:36;;;;;;;5.17;2.27;;;;;;;;;;4993907;28;20208;-93
2023/04/28 12:11:11;;;;;;;2.43;2.03;;;;;;;;;;4994072;28;20240;-95
2023/04/28 12:13:40;;;;;;;8.40;2.90;;;;;;;;;;4993757;28;20283;-92
2023/04/28 12:16:08;;;;;;;2.87;2.10;;;;;;;;;;4994164;28;20206;-94
2023/04/28 12:18:35;;;;;;;3.23;2.63;;;;;;;;;;4981017;28;20238;-93
2023/04/28 12:21:02;;;;;;;7.53;2.60;;;;;;;;;;4994000;28;20216;-95
2023/04/28 12:23:31;;;;;;;5.37;2.70;;;;;;;;;;4993831;28;20208;-91
2023/04/28 12:25:58;;;;;;;2.93;2.00;;;;;;;;;;4993292;28;20266;-94
2023/04/28 12:28:35;;;;;;;3.30;2.37;;;;;;;;;;4980644;28;20212;-92
2023/04/28 12:31:07;;;;;;;2.37;2.17;;;;;;;;;;4993431;28;20204;-93
2023/04/28 12:33:36;;;;;;;2.80;2.50;;;;;;;;;;4980708;28;20208;-93
2023/04/28 12:36:04;;;;;;;5.03;2.67;;;;;;;;;;4992903;28;20204;-93
2023/04/28 12:38:31;;;;;;;4.70;2.43;;;;;;;;;;4981116;28;20224;-93
2023/04/28 12:40:59;;;;;;;5.37;2.27;;;;;;;;;;4993644;28;20238;-92
2023/04/28 12:43:28;;;;;;;2.50;2.30;;;;;;;;;;4993651;28;20208;-93
2023/04/28 12:45:55;;;;;;;9.70;2.53;;;;;;;;;;4993140;28;20219;-92
2023/04/28 12:48:26;;;;;;;9.63;3.40;;;;;;;;;;4985078;28;20221;-92
2023/04/28 12:50:53;;;;;;;2.17;1.97;;;;;;;;;;4989632;28;20210;-93
2023/04/28 12:53:20;;;;;;;2.70;2.50;;;;;;;;;;4985195;28;20825;-92
2023/04/28 12:55:48;;;;;;;2.40;1.97;;;;;;;;;;4988808;28;20271;-93
2023/04/28 12:58:14;;;;;;;3.30;2.00;;;;;;;;;;4993078;28;20251;-94
2023/04/28 13:00:42;;;;;;;2.43;2.33;;;;;;;;;;4993297;28;20216;-93
2023/04/28 13:03:08;;;;;;;2.27;2.17;;;;;;;;;;4993068;28;20282;-92
2023/04/28 13:05:37;;;;;;;2.27;2.07;;;;;;;;;;4977823;28;20212;-93
2023/04/28 13:08:04;;;;;;;11.10;6.57;;;;;;;;;;4983248;28;20303;-93
2023/04/28 13:10:31;;;;;;;7.17;4.20;;;;;;;;;;4992295;28;20250;-94
2023/04/28 13:12:58;;;;;;;4.30;3.53;;;;;;;;;;4993372;28;20216;-93
2023/04/28 13:15:24;;;;;;;3.07;2.80;;;;;;;;;;4993085;28;20220;-93
2023/04/28 13:17:51;;;;;;;3.60;2.10;;;;;;;;;;4993241;28;20282;-93
2023/04/28 13:20:18;;;;;;;2.03;1.90;;;;;;;;;;4993183;28;20219;-93
2023/04/28 13:22:46;;;;;;;2.80;2.23;;;;;;;;;;4992575;28;20212;-93
2023/04/28 13:25:14;;;;;;;4.30;3.17;;;;;;;;;;4993063;28;20231;-92
2023/04/28 13:27:40;;;;;;;2.37;2.17;;;;;;;;;;4992860;28;20239;-92
2023/04/28 13:30:08;;;;;;;3.53;2.57;;;;;;;;;;4992492;28;20247;-92
2023/04/28 13:32:35;;;;;;;4.60;3.00;;;;;;;;;;4992820;28;20679;-92
2023/04/28 13:35:02;;;;;;;5.07;2.50;;;;;;;;;;4992461;28;20220;-93
2023/04/28 13:37:29;;;;;;;2.40;2.17;;;;;;;;;;4993206;28;20234;-93
2023/04/28 13:39:58;;;;;;;1.97;1.83;;;;;;;;;;4997054;28;20231;-92
2023/04/28 13:42:25;;;;;;;2.17;1.87;;;;;;;;;;4997281;28;20686;-93
2023/04/28 13:44:51;;;;;;;4.27;2.43;;;;;;;;;;4996541;28;20262;-93
2023/04/28 13:47:18;;;;;;;5.33;2.33;;;;;;;;;;4996730;28;20212;-92
2023/04/28 13:49:46;;;;;;;14.37;7.07;;;;;;;;;;4991813;28;20205;-92
2023/04/28 13:52:13;;;;;;;26.77;14.30;;;;;;;;;;4989102;28;20220;-92
2023/04/28 13:54:41;;;;;;;14.40;10.70;;;;;;;;;;4996259;28;20223;-93
2023/04/28 13:57:12;;;;;;;12.83;10.37;;;;;;;;;;4984150;28;20236;-93
2023/04/28 13:59:39;;;;;;;7.63;5.97;;;;;;;;;;4983497;28;20294;-92
2023/04/28 14:02:08;;;;;;;4.50;4.10;;;;;;;;;;4996126;28;20227;-93
2023/04/28 14:04:35;;;;;;;9.07;4.60;;;;;;;;;;4996643;28;20290;-92
2023/04/28 14:07:01;;;;;;;10.03;6.53;;;;;;;;;;4996249;28;20226;-92
2023/04/28 14:09:28;;;;;;;9.67;7.10;;;;;;;;;;4996119;28;20725;-93
2023/04/28 14:11:55;;;;;;;4.43;3.90;;;;;;;;;;4995981;28;20215;-93
2023/04/28 14:14:23;;;;;;;39.37;26.60;;;;;;;;;;4996135;28;20212;-91
2023/04/28 14:16:50;;;;;;;8.43;6.93;;;;;;;;;;4996114;28;20227;-93
2023/04/28 14:19:17;;;;;;;5.23;4.40;;;;;;;;;;4996035;28;20294;-93
2023/04/28 14:21:44;;;;;;;7.63;5.90;;;;;;;;;;4995254;28;20216;-91
2023/04/28 14:24:11;;;;;;;6.67;5.13;;;;;;;;;;4984592;28;20649;-93
2023/04/28 14:26:42;;;;;;;6.67;4.07;;;;;;;;;;4983133;28;20229;-92
2023/04/28 14:29:09;;;;;;;9.37;6.23;;;;;;;;;;4996316;28;20269;-93
2023/04/28 14:31:38;;;;;;;9.60;4.77;;;;;;;;;;4995917;28;20267;-92
2023/04/28 14:34:05;;;;;;;4.47;2.60;;;;;;;;;;4995894;28;20306;-93
2023/04/28 14:36:33;;;;;;;11.43;6.70;;;;;;;;;;4995889;28;20224;-92
2023/04/28 14:39:00;;;;;;;12.80;7.60;;;;;;;;;;4995458;28;20322;-93
2023/04/28 14:41:27;;;;;;;14.90;8.30;;;;;;;;;;4995772;28;20204;-92
2023/04/28 14:43:54;;;;;;;12.30;7.77;;;;;;;;;;4995779;28;20274;-93
2023/04/28 14:46:21;;;;;;;7.37;6.07;;;;;;;;;;4994677;28;20282;-93
2023/04/28 14:48:50;;;;;;;4.43;2.73;;;;;;;;;;4986042;28;20347;-93
2023/04/28 14:51:16;;;;;;;9.97;6.10;;;;;;;;;;4995543;28;20208;-92
2023/04/28 14:53:43;;;;;;;7.67;3.63;;;;;;;;;;4966954;28;20212;-93
2023/04/28 14:56:10;;;;;;;5.37;2.97;;;;;;;;;;4993836;28;20215;-93
2023/04/28 14:58:37;;;;;;;12.43;4.13;;;;;;;;;;4995127;28;20228;-93
2023/04/28 15:01:05;;;;;;;7.73;3.30;;;;;;;;;;4990718;28;20216;-92
2023/04/28 15:03:32;;;;;;;3.90;2.67;;;;;;;;;;4988469;28;20662;-92
2023/04/28 15:06:01;;;;;;;4.17;3.10;;;;;;;;;;4995186;28;20290;-92
2023/04/28 15:08:28;;;;;;;3.57;3.20;;;;;;;;;;4995581;28;20250;-93
2023/04/28 15:10:55;;;;;;;20.67;12.90;;;;;;;;;;4995231;28;20263;-93
2023/04/28 15:13:23;;;;;;;8.03;4.53;;;;;;;;;;4995410;28;20215;-93
2023/04/28 15:15:50;;;;;;;4.47;3.17;;;;;;;;;;4982717;28;20211;-92
2023/04/28 15:18:17;;;;;;;3.67;3.37;;;;;;;;;;4994612;28;20660;-92
2023/04/28 15:20:44;;;;;;;27.03;15.67;;;;;;;;;;4995179;28;20212;-92
2023/04/28 15:23:13;;;;;;;15.57;7.90;;;;;;;;;;4994873;28;20219;-93
2023/04/28 15:25:40;;;;;;;10.07;6.60;;;;;;;;;;4987495;28;20212;-93
2023/04/28 15:28:06;;;;;;;5.70;3.93;;;;;;;;;;4989807;28;20275;-93
2023/04/28 15:30:34;;;;;;;10.07;5.60;;;;;;;;;;4994941;28;20215;-93
2023/04/28 15:33:01;;;;;;;5.27;4.20;;;;;;;;;;4980544;28;20577;-94
2023/04/28 15:35:27;;;;;;;14.97;9.90;;;;;;;;;;4984044;28;20233;-93
2023/04/28 15:37:55;;;;;;;9.40;5.43;;;;;;;;;;4994834;28;20259;-93
2023/04/28 15:40:23;;;;;;;13.33;7.03;;;;;;;;;;4994873;28;20219;-93
2023/04/28 15:42:51;;;;;;;19.43;11.87;;;;;;;;;;4993911;28;20278;-93
2023/04/28 15:45:19;;;;;;;23.43;15.50;;;;;;;;;;4994469;28;20212;-94
2023/04/28 15:47:47;;;;;;;30.83;21.27;;;;;;;;;;4994983;28;20208;-93
2023/04/28 15:50:14;;;;;;;20.13;17.93;;;;;;;;;;4994565;28;20207;-93
2023/04/28 15:52:44;;;;;;;4.67;4.27;;;;;;;;;;4994600;28;20216;-93
2023/04/28 15:55:11;;;;;;;4.40;3.53;;;;;;;;;;4994525;28;20213;-94
2023/04/28 15:57:40;;;;;;;3.30;2.47;;;;;;;;;;4981133;28;20205;-94
2023/04/28 16:00:08;;;;;;;4.50;4.10;;;;;;;;;;4994077;28;20259;-94
2023/04/28 16:02:35;;;;;;;10.83;8.07;;;;;;;;;;4993354;28;20687;-94
2023/04/28 16:05:03;;;;;;;11.80;6.70;;;;;;;;;;4994344;28;20200;-94
2023/04/28 16:07:36;;;;;;;11.63;8.37;;;;;;;;;;4994093;28;20216;-94
2023/04/28 16:10:03;;;;;;;5.33;4.43;;;;;;;;;;4993988;28;20232;-93
2023/04/28 16:12:31;;;;;;;3.60;2.57;;;;;;;;;;4994276;28;20592;-94
2023/04/28 16:14:59;;;;;;;2.67;2.47;;;;;;;;;;4993908;28;20204;-94
2023/04/28 16:17:27;;;;;;;4.63;2.47;;;;;;;;;;4981095;28;20282;-93
2023/04/28 16:19:54;;;;;;;3.80;3.10;;;;;;;;;;4993610;28;20235;-94
2023/04/28 16:22:21;;;;;;;4.23;2.57;;;;;;;;;;4993427;28;20278;-94
2023/04/28 16:24:48;;;;;;;3.00;2.07;;;;;;;;;;4993184;28;20210;-93
2023/04/28 16:27:15;;;;;;;3.33;2.93;;;;;;;;;;4974391;28;20225;-93
2023/04/28 16:29:42;;;;;;;4.73;2.93;;;;;;;;;;4987906;28;20679;-95
2023/04/28 16:32:12;;;;;;;3.33;3.03;;;;;;;;;;4993803;28;20212;-94
2023/04/28 16:34:41;;;;;;;2.27;2.17;;;;;;;;;;4980754;28;20593;-94
2023/04/28 16:37:09;;;;;;;4.53;3.43;;;;;;;;;;4994032;28;20280;-94
2023/04/28 16:39:36;;;;;;;3.67;3.37;;;;;;;;;;4993074;28;20282;-93
2023/04/28 16:42:04;;;;;;;6.07;3.17;;;;;;;;;;4993628;28;20209;-93
2023/04/28 16:44:31;;;;;;;2.80;2.60;;;;;;;;;;4993408;28;20208;-94
2023/04/28 16:46:58;;;;;;;4.23;3.00;;;;;;;;;;4993469;28;20235;-93
2023/04/28 16:49:26;;;;;;;5.33;3.20;;;;;;;;;;4993069;28;20212;-92
2023/04/28 16:51:57;;;;;;;3.57;2.33;;;;;;;;;;4993373;28;20258;-93
2023/04/28 16:54:24;;;;;;;14.13;10.27;;;;;;;;;;4989991;28;20634;-94
2023/04/28 16:56:54;;;;;;;6.73;5.27;;;;;;;;;;4984250;28;20664;-94
2023/04/28 16:59:21;;;;;;;15.97;13.83;;;;;;;;;;4993193;28;20242;-93
2023/04/28 17:01:48;;;;;;;8.13;7.17;;;;;;;;;;4993462;28;20204;-94
2023/04/28 17:04:15;;;;;;;4.00;3.23;;;;;;;;;;4993406;28;20211;-94
2023/04/28 17:06:44;;;;;;;6.23;5.00;;;;;;;;;;4992990;28;20299;-94
2023/04/28 17:09:11;;;;;;;6.73;5.37;;;;;;;;;;4993234;28;20688;-93
2023/04/28 17:11:37;;;;;;;6.73;4.50;;;;;;;;;;4993055;28;20212;-94
2023/04/28 17:14:05;;;;;;;4.03;3.57;;;;;;;;;;4992947;28;20212;-93
2023/04/28 17:16:32;;;;;;;4.40;2.90;;;;;;;;;;4993127;28;20208;-93
2023/04/28 17:18:59;;;;;;;2.90;2.30;;;;;;;;;;4992888;28;20326;-94
2023/04/28 17:21:28;;;;;;;2.23;2.13;;;;;;;;;;4993278;28;20245;-93
2023/04/28 17:23:56;;;;;;;2.33;2.13;;;;;;;;;;4993038;28;20247;-94
2023/04/28 17:26:26;;;;;;;3.83;2.77;;;;;;;;;;4992788;28;20745;-93
2023/04/28 17:28:54;;;;;;;6.50;5.77;;;;;;;;;;4993073;28;20204;-94
2023/04/28 17:31:21;;;;;;;5.60;5.00;;;;;;;;;;4992438;28;20239;-93
2023/04/28 17:33:49;;;;;;;5.30;4.77;;;;;;;;;;4985286;28;20684;-92
2023/04/28 17:36:16;;;;;;;4.93;4.30;;;;;;;;;;4987886;28;20261;-94
2023/04/28 17:38:43;;;;;;;7.13;5.37;;;;;;;;;;4984295;28;20232;-94
2023/04/28 17:41:15;;;;;;;8.13;5.10;;;;;;;;;;4988892;28;20227;-93
2023/04/28 17:43:42;;;;;;;6.90;3.90;;;;;;;;;;4992666;28;20215;-94
2023/04/28 17:46:10;;;;;;;7.37;5.23;;;;;;;;;;4992944;28;20219;-94
2023/04/28 17:48:39;;;;;;;6.00;4.17;;;;;;;;;;4992621;28;20212;-94
2023/04/28 17:51:06;;;;;;;4.40;3.80;;;;;;;;;;4989363;28;20209;-94
2023/04/28 17:53:33;;;;;;;4.30;3.53;;;;;;;;;;4983083;28;20215;-93
2023/04/28 17:56:00;;;;;;;4.40;3.97;;;;;;;;;;4992710;28;20212;-94
2023/04/28 17:58:31;;;;;;;3.93;3.63;;;;;;;;;;4992858;28;20673;-94
2023/04/28 18:01:01;;;;;;;4.27;3.83;;;;;;;;;;4992614;28;20277;-92
2023/04/28 18:03:31;;;;;;;6.70;4.30;;;;;;;;;;4992527;28;20672;-93
2023/04/28 18:06:00;;;;;;;13.53;10.93;;;;;;;;;;4980128;28;20211;-93
2023/04/28 18:08:27;;;;;;;7.40;6.63;;;;;;;;;;4993209;28;20213;-93
2023/04/28 18:10:55;;;;;;;25.93;15.67;;;;;;;;;;4992644;28;20604;-93
2023/04/28 18:13:23;;;;;;;47.93;33.50;;;;;;;;;;4992436;28;20221;-95
2023/04/28 18:15:51;;;;;;;47.00;31.40;;;;;;;;;;4992582;28;20212;-94
2023/04/28 18:18:18;;;;;;;18.73;13.07;;;;;;;;;;4992500;28;20650;-94
2023/04/28 18:20:45;;;;;;;11.17;8.20;;;;;;;;;;4992378;28;20201;-93
2023/04/28 18:23:12;;;;;;;8.13;5.47;;;;;;;;;;4992349;28;20200;-94
2023/04/28 18:25:39;;;;;;;6.63;5.43;;;;;;;;;;4995765;28;20216;-94
2023/04/28 18:28:09;;;;;;;28.57;19.67;;;;;;;;;;4995262;28;20243;-94
2023/04/28 18:33:09;;;;;;;32.23;24.97;;;;;;;;;;4995748;28;20706;-93
2023/04/28 18:35:38;;;;;;;27.07;23.40;;;;;;;;;;4995879;28;20228;-94
2023/04/28 18:38:05;;;;;;;20.33;16.57;;;;;;;;;;4995666;28;20254;-94
2023/04/28 18:40:33;;;;;;;16.63;14.90;;;;;;;;;;4995222;28;20243;-94
2023/04/28 18:43:00;;;;;;;10.77;9.57;;;;;;;;;;4982791;28;20208;-93
2023/04/28 18:45:31;;;;;;;10.70;9.57;;;;;;;;;;4995811;28;20615;-95
2023/04/28 18:48:01;;;;;;;11.13;8.83;;;;;;;;;;4990792;28;20223;-94
2023/04/28 18:50:29;;;;;;;8.37;7.50;;;;;;;;;;4977418;28;20225;-93
2023/04/28 18:52:56;;;;;;;12.80;10.10;;;;;;;;;;4994196;28;20204;-94
2023/04/28 18:55:23;;;;;;;22.03;14.27;;;;;;;;;;4984332;28;20217;-94
2023/04/28 18:57:51;;;;;;;11.00;9.37;;;;;;;;;;4994422;28;20200;-94
2023/04/28 19:00:21;;;;;;;9.13;6.13;;;;;;;;;;4994972;28;20705;-94
2023/04/28 19:02:49;;;;;;;7.87;5.40;;;;;;;;;;4995413;28;20200;-94
2023/04/28 19:05:16;;;;;;;14.50;7.47;;;;;;;;;;4984378;28;20220;-94
2023/04/28 19:07:46;;;;;;;10.00;7.07;;;;;;;;;;4983071;28;20218;-93
2023/04/28 19:10:13;;;;;;;10.93;6.50;;;;;;;;;;4982812;28;20244;-94
2023/04/28 19:12:40;;;;;;;13.10;9.37;;;;;;;;;;4996784;28;20192;-94
2023/04/28 19:15:08;;;;;;;13.47;9.93;;;;;;;;;;4996461;28;20242;-93